Time;durP1;ratioP1;P1;durP2;ratioP2;P2;SDS_P1;SDS_P2;PMS_P1;PMS_P2;Temp;Humidity;BMP_temperature;BMP_pressure;BME280_temperature;BME280_humidity;BME280_pressure;Samples;Min_cycle;Max_cycle;Signal;HPM_P1;HPM_P2
2022/03/01 00:01:54;;;;;;;94.20;45.47;;;;;;;;;;4772413;30;20060;-76
2022/03/01 00:04:39;;;;;;;95.70;47.33;;;;;;;;;;4777682;30;20494;-76
2022/03/01 00:07:25;;;;;;;92.53;45.42;;;;;;;;;;4770438;30;20048;-76
2022/03/01 00:10:11;;;;;;;89.25;46.38;;;;;;;;;;4771553;30;20060;-77
2022/03/01 00:12:56;;;;;;;89.95;44.47;;;;;;;;;;4771329;30;20044;-75
2022/03/01 00:15:41;;;;;;;87.25;46.33;;;;;;;;;;4770144;30;20059;-77
2022/03/01 00:18:27;;;;;;;85.78;43.38;;;;;;;;;;4770108;30;20052;-77
2022/03/01 00:21:13;;;;;;;91.65;45.40;;;;;;;;;;4770037;30;20051;-78
2022/03/01 00:23:59;;;;;;;126.88;56.17;;;;;;;;;;4774774;30;20047;-76
2022/03/01 00:26:44;;;;;;;105.88;49.78;;;;;;;;;;4770184;30;20047;-75
2022/03/01 00:29:29;;;;;;;100.38;47.88;;;;;;;;;;4770517;30;20506;-77
2022/03/01 00:32:15;;;;;;;96.43;45.30;;;;;;;;;;4771542;30;20040;-75
2022/03/01 00:35:00;;;;;;;85.95;43.53;;;;;;;;;;4771858;30;20055;-77
2022/03/01 00:37:46;;;;;;;74.18;40.15;;;;;;;;;;4771782;30;20040;-78
2022/03/01 00:40:32;;;;;;;77.10;40.20;;;;;;;;;;4771783;30;20055;-77
2022/03/01 00:43:17;;;;;;;85.78;43.00;;;;;;;;;;4771352;30;20056;-77
2022/03/01 00:46:03;;;;;;;90.07;44.05;;;;;;;;;;4771752;30;20052;-77
2022/03/01 00:48:48;;;;;;;102.15;46.50;;;;;;;;;;4771671;30;20043;-77
2022/03/01 00:51:34;;;;;;;110.78;48.75;;;;;;;;;;4771544;30;20043;-76
2022/03/01 00:54:19;;;;;;;103.82;48.30;;;;;;;;;;4771740;30;20051;-77
2022/03/01 00:57:11;;;;;;;90.18;45.75;;;;;;;;;;4771220;30;20055;-76
2022/03/01 00:59:57;;;;;;;84.68;42.35;;;;;;;;;;4771461;30;20048;-77
2022/03/01 01:02:42;;;;;;;84.57;43.28;;;;;;;;;;4770980;30;20406;-76
2022/03/01 01:05:28;;;;;;;81.80;40.28;;;;;;;;;;4771166;30;20059;-78
2022/03/01 01:08:17;;;;;;;82.47;40.22;;;;;;;;;;4771338;30;20052;-77
2022/03/01 01:11:03;;;;;;;83.85;40.75;;;;;;;;;;4770904;30;20496;-77
2022/03/01 01:13:50;;;;;;;73.57;39.88;;;;;;;;;;4771294;30;20055;-77
2022/03/01 01:16:35;;;;;;;71.82;37.13;;;;;;;;;;4771213;30;20051;-77
2022/03/01 01:19:21;;;;;;;65.40;36.10;;;;;;;;;;4770939;30;20411;-77
2022/03/01 01:25:14;;;;;;;72.72;36.17;;;;;;;;;;4771177;30;20051;-77
2022/03/01 01:28:00;;;;;;;71.25;37.35;;;;;;;;;;4770972;30;20055;-77
2022/03/01 01:30:45;;;;;;;70.25;36.85;;;;;;;;;;4770662;30;20059;-77
2022/03/01 01:33:31;;;;;;;66.15;34.85;;;;;;;;;;4770747;30;20040;-77
2022/03/01 01:36:17;;;;;;;72.30;35.50;;;;;;;;;;4770938;30;20424;-77
2022/03/01 01:39:02;;;;;;;72.82;36.72;;;;;;;;;;4770736;30;20055;-77
2022/03/01 01:41:47;;;;;;;73.97;37.42;;;;;;;;;;4770716;30;20055;-77
2022/03/01 01:44:32;;;;;;;75.03;33.70;;;;;;;;;;4769713;30;20045;-79
2022/03/01 01:47:18;;;;;;;80.25;38.15;;;;;;;;;;4794458;29;20056;-78
2022/03/01 01:50:05;;;;;;;97.13;43.25;;;;;;;;;;4774464;30;20059;-77
2022/03/01 01:52:52;;;;;;;95.03;40.55;;;;;;;;;;4776834;30;20418;-77
2022/03/01 01:55:38;;;;;;;91.00;40.55;;;;;;;;;;4776581;30;20048;-78
2022/03/01 01:58:23;;;;;;;64.82;31.33;;;;;;;;;;4770563;30;20048;-77
2022/03/01 02:01:09;;;;;;;84.35;38.05;;;;;;;;;;4770470;30;20056;-78
2022/03/01 02:03:54;;;;;;;94.25;39.28;;;;;;;;;;4770543;30;20044;-77
2022/03/01 02:06:51;;;;;;;89.88;39.20;;;;;;;;;;4770450;30;20056;-76
2022/03/01 02:09:36;;;;;;;76.18;34.65;;;;;;;;;;4769685;30;20051;-77
2022/03/01 02:12:22;;;;;;;93.72;39.38;;;;;;;;;;4770368;30;20048;-78
2022/03/01 02:15:08;;;;;;;90.15;41.08;;;;;;;;;;4770268;30;20047;-75
2022/03/01 02:17:54;;;;;;;84.40;38.40;;;;;;;;;;4770419;30;20052;-77
2022/03/01 02:20:40;;;;;;;85.10;34.20;;;;;;;;;;4770202;30;20119;-75
2022/03/01 02:23:25;;;;;;;96.80;41.80;;;;;;;;;;4770228;30;20452;-76
2022/03/01 02:26:10;;;;;;;77.57;34.08;;;;;;;;;;4775833;30;20059;-76
2022/03/01 02:28:56;;;;;;;85.50;35.65;;;;;;;;;;4770436;30;20044;-77
2022/03/01 02:31:41;;;;;;;93.28;40.67;;;;;;;;;;4770329;30;20052;-77
2022/03/01 02:34:26;;;;;;;68.07;32.75;;;;;;;;;;4769390;30;20040;-77
2022/03/01 02:37:11;;;;;;;75.43;32.33;;;;;;;;;;4769604;30;20486;-77
2022/03/01 02:39:57;;;;;;;72.10;33.95;;;;;;;;;;4770197;30;20055;-77
2022/03/01 02:42:45;;;;;;;95.88;41.92;;;;;;;;;;4770105;30;20060;-77
2022/03/01 02:45:30;;;;;;;80.72;35.35;;;;;;;;;;4770354;30;20455;-78
2022/03/01 02:48:15;;;;;;;66.55;30.52;;;;;;;;;;4770490;30;20051;-78
2022/03/01 02:51:01;;;;;;;77.22;34.08;;;;;;;;;;4769947;30;20422;-78
2022/03/01 02:53:47;;;;;;;78.95;34.90;;;;;;;;;;4770240;30;20402;-78
2022/03/01 02:56:33;;;;;;;64.88;33.08;;;;;;;;;;4773543;30;20051;-78
2022/03/01 02:59:17;;;;;;;66.35;31.40;;;;;;;;;;4773074;30;20055;-78
2022/03/01 03:02:04;;;;;;;67.43;32.55;;;;;;;;;;4779485;30;20051;-77
2022/03/01 03:04:50;;;;;;;58.80;29.55;;;;;;;;;;4773765;30;20060;-78
2022/03/01 03:07:36;;;;;;;68.80;32.33;;;;;;;;;;4773477;30;20040;-77
2022/03/01 03:10:21;;;;;;;75.43;35.67;;;;;;;;;;4773180;30;20055;-79
2022/03/01 03:13:07;;;;;;;76.72;35.22;;;;;;;;;;4773317;30;20048;-77
2022/03/01 03:15:52;;;;;;;79.00;38.90;;;;;;;;;;4773636;30;20387;-77
2022/03/01 03:18:38;;;;;;;68.07;34.33;;;;;;;;;;4778996;30;20039;-78
2022/03/01 03:21:23;;;;;;;68.55;32.67;;;;;;;;;;4772375;30;20052;-78
2022/03/01 03:24:08;;;;;;;68.75;32.47;;;;;;;;;;4778552;30;20048;-77
2022/03/01 03:26:53;;;;;;;70.28;34.80;;;;;;;;;;4778279;30;20047;-78
2022/03/01 03:29:38;;;;;;;66.85;31.85;;;;;;;;;;4772977;30;20055;-76
2022/03/01 03:32:23;;;;;;;63.78;32.75;;;;;;;;;;4759528;30;20059;-78
2022/03/01 03:35:08;;;;;;;67.50;32.67;;;;;;;;;;4771000;30;20052;-78
2022/03/01 03:37:54;;;;;;;65.55;31.67;;;;;;;;;;4770715;30;20403;-77
2022/03/01 03:40:39;;;;;;;69.20;33.10;;;;;;;;;;4777347;30;20047;-78
2022/03/01 03:43:25;;;;;;;58.13;30.08;;;;;;;;;;4771724;30;20048;-78
2022/03/01 03:46:11;;;;;;;64.85;31.95;;;;;;;;;;4772432;30;20052;-79
2022/03/01 03:48:56;;;;;;;58.38;29.83;;;;;;;;;;4772902;30;20486;-79
2022/03/01 03:51:42;;;;;;;64.65;32.33;;;;;;;;;;4771962;30;20402;-78
2022/03/01 03:54:27;;;;;;;62.72;32.03;;;;;;;;;;4776764;30;20044;-79
2022/03/01 03:57:12;;;;;;;58.15;29.65;;;;;;;;;;4770433;30;20052;-79
2022/03/01 03:59:58;;;;;;;52.90;28.58;;;;;;;;;;4770214;30;20047;-79
2022/03/01 04:02:45;;;;;;;55.90;27.45;;;;;;;;;;4783740;29;20039;-79
2022/03/01 04:05:31;;;;;;;59.45;28.83;;;;;;;;;;4785743;29;20048;-77
2022/03/01 04:08:17;;;;;;;55.03;29.23;;;;;;;;;;4771193;30;20085;-79
2022/03/01 04:11:02;;;;;;;58.75;30.23;;;;;;;;;;4772122;30;20059;-78
2022/03/01 04:13:47;;;;;;;59.33;30.30;;;;;;;;;;4772343;30;20491;-78
2022/03/01 04:16:33;;;;;;;55.58;28.73;;;;;;;;;;4772066;30;20398;-78
2022/03/01 04:19:19;;;;;;;68.20;30.80;;;;;;;;;;4778108;30;20043;-78
2022/03/01 04:22:04;;;;;;;69.68;31.77;;;;;;;;;;4771253;30;20055;-78
2022/03/01 04:24:50;;;;;;;64.90;31.58;;;;;;;;;;4771515;30;20040;-79
2022/03/01 04:27:35;;;;;;;69.95;31.63;;;;;;;;;;4771832;30;20056;-78
2022/03/01 04:30:21;;;;;;;53.05;28.27;;;;;;;;;;4771854;30;20059;-78
2022/03/01 04:33:07;;;;;;;58.15;29.67;;;;;;;;;;4771700;30;20048;-79
2022/03/01 04:35:52;;;;;;;55.63;29.23;;;;;;;;;;4771690;30;20043;-79
2022/03/01 04:38:38;;;;;;;61.38;31.33;;;;;;;;;;4772307;30;20048;-79
2022/03/01 04:41:24;;;;;;;57.22;30.83;;;;;;;;;;4771501;30;20398;-80
2022/03/01 04:44:09;;;;;;;69.68;32.50;;;;;;;;;;4771528;30;20043;-80
2022/03/01 04:46:55;;;;;;;99.68;39.63;;;;;;;;;;4771580;30;20060;-79
2022/03/01 04:49:41;;;;;;;79.78;37.00;;;;;;;;;;4771634;30;20059;-80
2022/03/01 04:52:26;;;;;;;60.00;32.63;;;;;;;;;;4771911;30;20077;-80
2022/03/01 04:55:12;;;;;;;68.30;35.33;;;;;;;;;;4771368;30;20055;-77
2022/03/01 04:57:57;;;;;;;69.15;34.35;;;;;;;;;;4771288;30;20043;-79
2022/03/01 05:00:43;;;;;;;70.43;34.00;;;;;;;;;;4771253;30;20052;-78
2022/03/01 05:03:28;;;;;;;80.45;42.25;;;;;;;;;;4770816;30;20039;-78
2022/03/01 05:06:14;;;;;;;67.78;34.50;;;;;;;;;;4771092;30;20491;-79
2022/03/01 05:08:59;;;;;;;66.70;32.60;;;;;;;;;;4771020;30;20051;-78
2022/03/01 05:11:45;;;;;;;68.88;34.65;;;;;;;;;;4771502;30;20490;-78
2022/03/01 05:14:30;;;;;;;74.00;33.58;;;;;;;;;;4777099;30;20036;-78
2022/03/01 05:17:16;;;;;;;86.43;37.03;;;;;;;;;;4770905;30;20056;-78
2022/03/01 05:20:03;;;;;;;90.07;40.60;;;;;;;;;;4771238;30;20052;-78
2022/03/01 05:22:49;;;;;;;79.10;36.60;;;;;;;;;;4770854;30;20494;-78
2022/03/01 05:25:34;;;;;;;70.97;35.22;;;;;;;;;;4771205;30;20056;-78
2022/03/01 05:28:20;;;;;;;65.32;33.03;;;;;;;;;;4771482;30;20047;-78
2022/03/01 05:31:05;;;;;;;82.45;37.92;;;;;;;;;;4770971;30;20047;-78
2022/03/01 05:33:51;;;;;;;87.57;40.58;;;;;;;;;;4771012;30;20048;-79
2022/03/01 05:36:36;;;;;;;87.03;38.20;;;;;;;;;;4776570;30;20403;-79
2022/03/01 05:39:21;;;;;;;76.70;36.90;;;;;;;;;;4770675;30;20047;-78
2022/03/01 05:42:08;;;;;;;82.95;39.90;;;;;;;;;;4770525;30;20040;-78
2022/03/01 05:44:55;;;;;;;85.05;40.50;;;;;;;;;;4770582;30;20040;-78
2022/03/01 05:47:43;;;;;;;77.22;38.75;;;;;;;;;;4771089;30;20397;-77
2022/03/01 05:50:28;;;;;;;98.22;44.58;;;;;;;;;;4770828;30;20048;-79
2022/03/01 05:53:14;;;;;;;97.78;45.70;;;;;;;;;;4776792;30;20047;-78
2022/03/01 05:55:59;;;;;;;106.80;50.88;;;;;;;;;;4770794;30;20047;-78
2022/03/01 05:58:45;;;;;;;90.97;43.15;;;;;;;;;;4776551;30;20051;-79
2022/03/01 06:01:31;;;;;;;90.88;41.45;;;;;;;;;;4770575;30;20056;-78
2022/03/01 06:04:16;;;;;;;80.38;40.47;;;;;;;;;;4768344;30;20483;-78
2022/03/01 06:07:02;;;;;;;59.20;32.08;;;;;;;;;;4774681;30;20067;-78
2022/03/01 06:09:47;;;;;;;53.42;29.85;;;;;;;;;;4770120;30;20047;-79
2022/03/01 06:12:33;;;;;;;51.15;28.38;;;;;;;;;;4776558;30;20402;-77
2022/03/01 06:15:18;;;;;;;46.60;25.48;;;;;;;;;;4770555;30;20040;-77
2022/03/01 06:18:04;;;;;;;40.35;22.77;;;;;;;;;;4790252;29;20040;-78
2022/03/01 06:20:50;;;;;;;44.42;23.38;;;;;;;;;;4780042;30;20051;-78
2022/03/01 06:23:35;;;;;;;39.13;22.98;;;;;;;;;;4771335;30;20063;-77
2022/03/01 06:26:21;;;;;;;48.53;27.95;;;;;;;;;;4770261;30;20055;-78
2022/03/01 06:29:06;;;;;;;56.60;30.55;;;;;;;;;;4771210;30;20047;-77
2022/03/01 06:31:52;;;;;;;48.75;25.38;;;;;;;;;;4773885;30;20059;-77
2022/03/01 06:34:37;;;;;;;40.35;22.45;;;;;;;;;;4773920;30;20051;-77
2022/03/01 06:37:23;;;;;;;43.78;25.27;;;;;;;;;;4773724;30;20056;-77
2022/03/01 06:40:12;;;;;;;44.90;24.80;;;;;;;;;;4773613;30;20044;-77
2022/03/01 06:42:57;;;;;;;44.20;25.98;;;;;;;;;;4773456;30;20043;-77
2022/03/01 06:45:43;;;;;;;48.47;26.10;;;;;;;;;;4778695;30;20081;-78
2022/03/01 06:48:29;;;;;;;33.15;18.98;;;;;;;;;;4773255;30;20055;-78
2022/03/01 06:51:15;;;;;;;49.60;25.70;;;;;;;;;;4773097;30;20052;-79
2022/03/01 06:54:01;;;;;;;43.38;24.17;;;;;;;;;;4773465;30;20048;-78
2022/03/01 06:56:47;;;;;;;39.42;21.50;;;;;;;;;;4778835;30;20051;-77
2022/03/01 06:59:32;;;;;;;36.35;22.45;;;;;;;;;;4779123;30;20043;-77
2022/03/01 07:02:17;;;;;;;34.22;17.70;;;;;;;;;;4759529;30;20056;-78
2022/03/01 07:05:02;;;;;;;73.78;25.77;;;;;;;;;;4773048;30;20052;-78
2022/03/01 07:07:48;;;;;;;54.40;25.13;;;;;;;;;;4773028;30;20051;-78
2022/03/01 07:10:33;;;;;;;31.45;18.10;;;;;;;;;;4773156;30;20052;-78
2022/03/01 07:13:19;;;;;;;33.47;19.00;;;;;;;;;;4773135;30;20047;-78
2022/03/01 07:16:05;;;;;;;35.78;19.38;;;;;;;;;;4773072;30;20044;-78
2022/03/01 07:18:50;;;;;;;37.83;20.42;;;;;;;;;;4773103;30;20407;-79
2022/03/01 07:21:36;;;;;;;25.20;14.50;;;;;;;;;;4779131;30;20060;-79
2022/03/01 07:24:21;;;;;;;29.83;17.77;;;;;;;;;;4772960;30;20044;-79
2022/03/01 07:27:07;;;;;;;30.58;18.92;;;;;;;;;;4772669;30;20055;-78
2022/03/01 07:29:52;;;;;;;36.17;19.45;;;;;;;;;;4772698;30;20064;-77
2022/03/01 07:32:38;;;;;;;34.17;18.33;;;;;;;;;;4778819;30;20048;-79
2022/03/01 07:35:25;;;;;;;37.05;19.85;;;;;;;;;;4773102;30;20043;-79
2022/03/01 07:38:10;;;;;;;65.32;30.67;;;;;;;;;;4773013;30;20052;-79
2022/03/01 07:40:55;;;;;;;96.68;44.00;;;;;;;;;;4772650;30;20486;-78
2022/03/01 07:43:41;;;;;;;60.60;28.95;;;;;;;;;;4772363;30;20426;-76
2022/03/01 07:46:27;;;;;;;44.58;24.77;;;;;;;;;;4778470;30;20060;-77
2022/03/01 07:49:12;;;;;;;53.70;28.45;;;;;;;;;;4772271;30;20490;-78
2022/03/01 07:51:58;;;;;;;51.17;28.90;;;;;;;;;;4778439;30;20402;-78
2022/03/01 07:54:44;;;;;;;53.10;27.90;;;;;;;;;;4772416;30;20048;-77
2022/03/01 07:57:29;;;;;;;59.38;32.08;;;;;;;;;;4772289;30;20047;-77
2022/03/01 08:00:16;;;;;;;66.85;35.17;;;;;;;;;;4772281;30;20048;-77
2022/03/01 08:03:01;;;;;;;82.82;38.33;;;;;;;;;;4772563;30;20063;-77
2022/03/01 08:05:47;;;;;;;75.78;39.05;;;;;;;;;;4772350;30;20051;-76
2022/03/01 08:08:32;;;;;;;65.93;34.70;;;;;;;;;;4772071;30;20105;-77
2022/03/01 08:11:18;;;;;;;85.88;41.00;;;;;;;;;;4772073;30;20055;-77
2022/03/01 08:14:03;;;;;;;70.80;34.58;;;;;;;;;;4771942;30;20051;-77
2022/03/01 08:16:49;;;;;;;38.88;23.30;;;;;;;;;;4772017;30;20047;-77
2022/03/01 08:19:34;;;;;;;50.78;27.40;;;;;;;;;;4771930;30;20490;-77
2022/03/01 08:22:20;;;;;;;49.58;26.63;;;;;;;;;;4771885;30;20052;-77
2022/03/01 08:25:07;;;;;;;45.53;25.77;;;;;;;;;;4771629;30;20403;-77
2022/03/01 08:27:53;;;;;;;59.22;30.35;;;;;;;;;;4771755;30;20052;-78
2022/03/01 08:30:38;;;;;;;39.10;23.88;;;;;;;;;;4774007;30;20459;-79
2022/03/01 08:33:24;;;;;;;37.65;19.45;;;;;;;;;;4794656;29;20036;-78
2022/03/01 08:36:12;;;;;;;38.50;21.15;;;;;;;;;;4773124;30;20043;-77
2022/03/01 08:38:57;;;;;;;44.38;23.75;;;;;;;;;;4771773;30;20051;-77
2022/03/01 08:41:42;;;;;;;49.92;26.65;;;;;;;;;;4777569;30;20063;-77
2022/03/01 08:44:28;;;;;;;46.15;27.52;;;;;;;;;;4771278;30;20491;-78
2022/03/01 08:47:13;;;;;;;43.13;25.00;;;;;;;;;;4771450;30;20048;-78
2022/03/01 08:50:00;;;;;;;26.55;17.67;;;;;;;;;;4774628;30;20428;-76
2022/03/01 08:52:45;;;;;;;41.05;20.65;;;;;;;;;;4774894;30;20047;-77
2022/03/01 08:55:31;;;;;;;24.52;13.35;;;;;;;;;;4770548;30;20044;-77
2022/03/01 08:58:16;;;;;;;23.65;14.52;;;;;;;;;;4770728;30;20051;-77
2022/03/01 09:01:02;;;;;;;30.45;17.58;;;;;;;;;;4770288;30;20048;-77
2022/03/01 09:03:47;;;;;;;30.52;17.92;;;;;;;;;;4770323;30;20506;-77
2022/03/01 09:06:33;;;;;;;39.92;22.27;;;;;;;;;;4776127;30;20055;-79
2022/03/01 09:09:18;;;;;;;33.75;19.08;;;;;;;;;;4774437;30;20048;-80
2022/03/01 09:12:04;;;;;;;35.22;20.17;;;;;;;;;;4777621;30;20044;-81
2022/03/01 09:14:49;;;;;;;31.67;18.15;;;;;;;;;;4773519;30;20055;-81
2022/03/01 09:17:35;;;;;;;30.35;18.30;;;;;;;;;;4774993;30;20051;-82
2022/03/01 09:20:20;;;;;;;36.10;19.83;;;;;;;;;;4774008;30;20056;-81
2022/03/01 09:23:06;;;;;;;40.10;21.42;;;;;;;;;;4776046;30;20044;-81
2022/03/01 09:25:52;;;;;;;33.97;19.98;;;;;;;;;;4777495;30;20394;-82
2022/03/01 09:28:38;;;;;;;31.20;16.88;;;;;;;;;;4775379;30;20047;-81
2022/03/01 09:31:23;;;;;;;32.78;21.27;;;;;;;;;;4770781;30;20422;-80
2022/03/01 09:34:08;;;;;;;33.42;19.45;;;;;;;;;;4769946;30;20047;-83
2022/03/01 09:36:54;;;;;;;39.22;21.40;;;;;;;;;;4776024;30;20055;-81
2022/03/01 09:39:39;;;;;;;24.50;14.85;;;;;;;;;;4770266;30;20047;-82
2022/03/01 09:42:27;;;;;;;32.28;19.27;;;;;;;;;;4770534;30;20052;-80
2022/03/01 09:45:13;;;;;;;35.50;19.52;;;;;;;;;;4769976;30;20410;-82
2022/03/01 09:47:59;;;;;;;31.00;18.65;;;;;;;;;;4769896;30;20048;-82
2022/03/01 09:50:45;;;;;;;28.27;17.92;;;;;;;;;;4679336;30;2750829;-83
2022/03/01 09:53:31;;;;;;;44.15;21.73;;;;;;;;;;4763060;30;20056;-80
2022/03/01 09:56:18;;;;;;;53.90;28.80;;;;;;;;;;4775346;30;20044;-83
2022/03/01 09:59:04;;;;;;;54.78;27.88;;;;;;;;;;4769702;30;20051;-83
2022/03/01 10:01:51;;;;;;;52.65;27.92;;;;;;;;;;4770769;30;20395;-82
2022/03/01 10:04:55;;;;;;;65.13;32.17;;;;;;;;;;4771470;30;20150;-82
2022/03/01 10:07:43;;;;;;;61.47;29.03;;;;;;;;;;4774401;30;20395;-80
2022/03/01 10:10:37;;;;;;;32.92;19.85;;;;;;;;;;4773720;30;20064;-82
2022/03/01 10:13:30;;;;;;;43.40;23.88;;;;;;;;;;4773867;30;20051;-82
2022/03/01 10:16:17;;;;;;;33.67;18.42;;;;;;;;;;4772835;30;20047;-82
2022/03/01 10:19:03;;;;;;;34.80;20.92;;;;;;;;;;4773505;30;20055;-82
2022/03/01 10:21:57;;;;;;;44.00;23.88;;;;;;;;;;4773714;30;20048;-81
2022/03/01 10:24:48;;;;;;;33.85;18.38;;;;;;;;;;4773717;30;20048;-83
2022/03/01 10:27:34;;;;;;;29.60;18.50;;;;;;;;;;4774102;30;20055;-82
2022/03/01 10:30:33;;;;;;;41.28;22.40;;;;;;;;;;4774096;30;20051;-86
2022/03/01 10:33:20;;;;;;;35.35;20.85;;;;;;;;;;4773885;30;20059;-85
2022/03/01 10:36:05;;;;;;;58.25;29.48;;;;;;;;;;4780253;30;20044;-86
2022/03/01 10:39:01;;;;;;;55.13;26.42;;;;;;;;;;4774293;30;20056;-87
2022/03/01 10:41:49;;;;;;;32.25;19.05;;;;;;;;;;4774228;30;20048;-83
2022/03/01 10:44:34;;;;;;;64.25;29.40;;;;;;;;;;4773173;30;20415;-83
2022/03/01 10:47:20;;;;;;;43.72;22.55;;;;;;;;;;4781043;29;20036;-85
2022/03/01 10:50:10;;;;;;;51.10;26.98;;;;;;;;;;4796677;29;20035;-86
2022/03/01 10:52:56;;;;;;;40.65;23.60;;;;;;;;;;4788315;30;20053;-85
2022/03/01 10:55:43;;;;;;;54.35;28.33;;;;;;;;;;4773997;30;20044;-86
2022/03/01 10:58:28;;;;;;;68.05;34.00;;;;;;;;;;4773540;30;20052;-85
2022/03/01 11:01:13;;;;;;;53.53;27.08;;;;;;;;;;4773761;30;20055;-86
2022/03/01 11:03:59;;;;;;;51.22;28.83;;;;;;;;;;4773311;30;20040;-85
2022/03/01 11:06:47;;;;;;;11.77;8.82;;;;;;;;;;4773408;30;20047;-86
2022/03/01 11:09:33;;;;;;;24.30;15.80;;;;;;;;;;4773339;30;20052;-83
2022/03/01 11:12:22;;;;;;;16.85;11.82;;;;;;;;;;4773234;30;20044;-85
2022/03/01 11:15:26;;;;;;;20.52;12.45;;;;;;;;;;4773029;30;20043;-87
2022/03/01 11:18:30;;;;;;;23.02;14.48;;;;;;;;;;4773125;30;20052;-86
2022/03/01 11:21:17;;;;;;;22.65;13.82;;;;;;;;;;4773118;30;20051;-87
2022/03/01 11:24:03;;;;;;;23.60;14.18;;;;;;;;;;4773837;30;20048;-85
2022/03/01 11:26:49;;;;;;;31.00;15.90;;;;;;;;;;4773172;30;20395;-86
2022/03/01 11:29:39;;;;;;;41.70;22.73;;;;;;;;;;4772043;30;20048;-87
2022/03/01 11:32:25;;;;;;;31.90;20.83;;;;;;;;;;4778400;30;20052;-86
2022/03/01 11:35:24;;;;;;;30.17;19.95;;;;;;;;;;4772987;30;20048;-86
2022/03/01 11:38:15;;;;;;;37.22;23.30;;;;;;;;;;4772934;30;20047;-85
2022/03/01 11:41:19;;;;;;;39.80;24.00;;;;;;;;;;4772888;30;20056;-83
2022/03/01 11:44:08;;;;;;;29.73;20.73;;;;;;;;;;4772804;30;20055;-84
2022/03/01 11:46:53;;;;;;;27.23;17.30;;;;;;;;;;4772095;30;20055;-83
2022/03/01 11:49:40;;;;;;;33.70;18.75;;;;;;;;;;4772081;30;20051;-84
2022/03/01 11:52:26;;;;;;;33.88;19.60;;;;;;;;;;4772263;30;20486;-83
2022/03/01 11:55:11;;;;;;;15.15;9.07;;;;;;;;;;4771787;30;20051;-84
2022/03/01 11:57:57;;;;;;;20.33;10.82;;;;;;;;;;4772345;30;20048;-82
2022/03/01 12:00:43;;;;;;;25.73;14.63;;;;;;;;;;4778105;30;20406;-84
2022/03/01 12:03:29;;;;;;;19.80;12.77;;;;;;;;;;4772222;30;20056;-84
2022/03/01 12:06:21;;;;;;;15.45;9.57;;;;;;;;;;4773293;30;20047;-85
2022/03/01 12:09:09;;;;;;;35.35;18.95;;;;;;;;;;4774310;30;20055;-86
2022/03/01 12:12:08;;;;;;;22.27;14.93;;;;;;;;;;4772929;30;20063;-85
2022/03/01 12:14:54;;;;;;;40.17;21.83;;;;;;;;;;4773271;30;20055;-86
2022/03/01 12:17:45;;;;;;;29.17;14.95;;;;;;;;;;4772542;30;20422;-84
2022/03/01 12:20:29;;;;;;;20.25;12.98;;;;;;;;;;4772736;30;20048;-85
2022/03/01 12:23:37;;;;;;;17.25;12.10;;;;;;;;;;4772787;30;20063;-85
2022/03/01 12:26:26;;;;;;;27.52;16.70;;;;;;;;;;4776410;30;20044;-86
2022/03/01 12:29:12;;;;;;;27.83;15.88;;;;;;;;;;4777088;30;20059;-86
2022/03/01 12:32:00;;;;;;;36.65;16.40;;;;;;;;;;4772333;30;20048;-84
2022/03/01 12:34:46;;;;;;;17.17;10.57;;;;;;;;;;4772151;30;20043;-86
2022/03/01 12:37:32;;;;;;;26.90;13.60;;;;;;;;;;4771910;30;20056;-85
2022/03/01 12:40:29;;;;;;;24.50;15.07;;;;;;;;;;4771869;30;20056;-88
2022/03/01 12:43:14;;;;;;;56.38;23.08;;;;;;;;;;4770086;30;20479;-85
2022/03/01 12:46:00;;;;;;;38.15;18.75;;;;;;;;;;4775402;30;20048;-84
2022/03/01 12:48:47;;;;;;;79.18;29.90;;;;;;;;;;4771812;30;20060;-81
2022/03/01 12:51:34;;;;;;;76.95;28.95;;;;;;;;;;4771450;30;20546;-83
2022/03/01 12:54:23;;;;;;;43.80;22.05;;;;;;;;;;4771871;30;20051;-81
2022/03/01 12:57:11;;;;;;;138.98;40.25;;;;;;;;;;4777018;30;20146;-83
2022/03/01 12:59:57;;;;;;;26.25;13.38;;;;;;;;;;4772205;30;20051;-83
2022/03/01 13:02:55;;;;;;;29.05;17.90;;;;;;;;;;4771595;30;20048;-84
2022/03/01 13:05:41;;;;;;;36.10;20.80;;;;;;;;;;4793129;29;20036;-83
2022/03/01 13:08:30;;;;;;;23.67;14.27;;;;;;;;;;4785344;30;20051;-83
2022/03/01 13:11:16;;;;;;;42.55;22.23;;;;;;;;;;4782294;30;20059;-81
2022/03/01 13:14:08;;;;;;;40.25;22.75;;;;;;;;;;4772507;30;20055;-84
2022/03/01 13:17:00;;;;;;;28.48;16.75;;;;;;;;;;4770903;30;20522;-82
2022/03/01 13:19:45;;;;;;;33.30;20.13;;;;;;;;;;4771520;30;20040;-86
2022/03/01 13:22:30;;;;;;;54.75;26.08;;;;;;;;;;4771648;30;20044;-84
2022/03/01 13:25:16;;;;;;;36.13;20.35;;;;;;;;;;4770946;30;20044;-83
2022/03/01 13:28:03;;;;;;;24.10;13.35;;;;;;;;;;4771678;30;20051;-87
2022/03/01 13:30:49;;;;;;;31.70;17.67;;;;;;;;;;4771506;30;20048;-83
2022/03/01 13:33:34;;;;;;;21.95;13.73;;;;;;;;;;4775670;30;20048;-80
2022/03/01 13:36:21;;;;;;;17.25;11.85;;;;;;;;;;4770692;30;20521;-78
2022/03/01 13:39:10;;;;;;;24.48;13.88;;;;;;;;;;4769942;30;20052;-81
2022/03/01 13:42:00;;;;;;;26.30;16.17;;;;;;;;;;4770479;30;20052;-79
2022/03/01 13:44:47;;;;;;;14.80;8.45;;;;;;;;;;4770331;30;20052;-81
2022/03/01 13:47:36;;;;;;;17.20;10.60;;;;;;;;;;4770409;30;20494;-81
2022/03/01 13:50:22;;;;;;;21.23;12.48;;;;;;;;;;4770481;30;20059;-81
2022/03/01 13:53:16;;;;;;;16.63;10.95;;;;;;;;;;4770565;30;20047;-81
2022/03/01 13:56:02;;;;;;;27.90;14.45;;;;;;;;;;4775513;30;20052;-81
2022/03/01 13:58:48;;;;;;;25.65;14.90;;;;;;;;;;4770917;30;20047;-80
2022/03/01 14:01:33;;;;;;;15.38;9.75;;;;;;;;;;4770438;30;20055;-81
2022/03/01 14:04:26;;;;;;;34.28;17.70;;;;;;;;;;4770731;30;20048;-79
2022/03/01 14:07:22;;;;;;;30.63;19.13;;;;;;;;;;4770530;30;20052;-80
2022/03/01 14:10:08;;;;;;;33.80;19.85;;;;;;;;;;4770792;30;20414;-82
2022/03/01 14:13:09;;;;;;;60.25;29.77;;;;;;;;;;4770986;30;20060;-80
2022/03/01 14:16:15;;;;;;;55.45;29.98;;;;;;;;;;4769923;30;20044;-80
2022/03/01 14:19:04;;;;;;;59.83;33.55;;;;;;;;;;4771006;30;20055;-80
2022/03/01 14:21:49;;;;;;;35.78;21.70;;;;;;;;;;4770424;30;20495;-81
2022/03/01 14:24:35;;;;;;;46.58;25.70;;;;;;;;;;4770859;30;20043;-81
2022/03/01 14:27:20;;;;;;;44.65;26.73;;;;;;;;;;4770423;30;20056;-81
2022/03/01 14:30:06;;;;;;;44.30;24.35;;;;;;;;;;4770372;30;20051;-81
2022/03/01 14:32:52;;;;;;;33.03;19.77;;;;;;;;;;4772257;30;20056;-80
2022/03/01 14:35:38;;;;;;;53.15;30.85;;;;;;;;;;4771344;30;20043;-80
2022/03/01 14:38:24;;;;;;;41.47;24.90;;;;;;;;;;4770635;30;20048;-82
2022/03/01 14:41:11;;;;;;;21.65;12.30;;;;;;;;;;4770641;30;20048;-81
2022/03/01 14:43:58;;;;;;;45.03;25.35;;;;;;;;;;4771611;30;20056;-82
2022/03/01 14:46:44;;;;;;;34.05;19.55;;;;;;;;;;4783826;30;20051;-80
2022/03/01 14:49:37;;;;;;;59.50;30.92;;;;;;;;;;4784525;30;20056;-79
2022/03/01 14:52:25;;;;;;;41.35;23.77;;;;;;;;;;4787102;30;20063;-81
2022/03/01 14:55:10;;;;;;;21.23;12.65;;;;;;;;;;4773191;30;20052;-81
2022/03/01 14:57:55;;;;;;;43.28;25.23;;;;;;;;;;4773716;30;20055;-81
2022/03/01 15:00:41;;;;;;;46.70;27.02;;;;;;;;;;4773599;30;20048;-81
2022/03/01 15:03:26;;;;;;;52.03;26.42;;;;;;;;;;4773347;30;20059;-80
2022/03/01 15:06:12;;;;;;;46.45;25.85;;;;;;;;;;4773137;30;20073;-79
2022/03/01 15:08:57;;;;;;;50.25;29.70;;;;;;;;;;4773273;30;20047;-79
2022/03/01 15:11:43;;;;;;;47.75;23.73;;;;;;;;;;4773236;30;20044;-80
2022/03/01 15:14:28;;;;;;;20.85;12.25;;;;;;;;;;4772962;30;20491;-81
2022/03/01 15:17:14;;;;;;;47.80;26.48;;;;;;;;;;4774011;30;20043;-78
2022/03/01 15:19:59;;;;;;;43.45;24.35;;;;;;;;;;4793493;29;20055;-80
2022/03/01 15:22:47;;;;;;;40.00;24.38;;;;;;;;;;4781518;30;20047;-79
2022/03/01 15:25:32;;;;;;;42.90;24.35;;;;;;;;;;4773776;30;20051;-80
2022/03/01 15:28:18;;;;;;;34.83;19.10;;;;;;;;;;4778702;30;20047;-78
2022/03/01 15:31:03;;;;;;;49.50;25.27;;;;;;;;;;4773007;30;20064;-80
2022/03/01 15:33:49;;;;;;;30.13;17.00;;;;;;;;;;4772911;30;20498;-79
2022/03/01 15:36:34;;;;;;;52.83;27.80;;;;;;;;;;4772441;30;20051;-79
2022/03/01 15:39:20;;;;;;;58.17;30.23;;;;;;;;;;4772811;30;20051;-78
2022/03/01 15:42:05;;;;;;;66.43;33.10;;;;;;;;;;4771701;30;20051;-81
2022/03/01 15:44:51;;;;;;;66.90;33.90;;;;;;;;;;4772618;30;20048;-80
2022/03/01 15:47:39;;;;;;;62.90;34.03;;;;;;;;;;4772511;30;20056;-80
2022/03/01 15:50:24;;;;;;;50.60;27.80;;;;;;;;;;4772261;30;20052;-80
2022/03/01 15:53:09;;;;;;;64.20;33.92;;;;;;;;;;4773060;30;20059;-78
2022/03/01 15:55:55;;;;;;;75.80;41.90;;;;;;;;;;4772468;30;20044;-81
2022/03/01 15:58:41;;;;;;;109.07;53.83;;;;;;;;;;4772324;30;20048;-80
2022/03/01 16:01:26;;;;;;;81.57;45.92;;;;;;;;;;4771565;30;20055;-79
2022/03/01 16:04:13;;;;;;;101.47;48.63;;;;;;;;;;4772092;30;20063;-81
2022/03/01 16:06:58;;;;;;;83.47;40.45;;;;;;;;;;4772402;30;20044;-82
2022/03/01 16:09:45;;;;;;;84.47;42.00;;;;;;;;;;4772050;30;20055;-81
2022/03/01 16:12:30;;;;;;;82.15;39.83;;;;;;;;;;4772217;30;20047;-80